sensor_id;sensor_type;location;lat;lon;timestamp;P1;durP1;ratioP1;P2;durP2;ratioP2
48524;SDS011;34316;51.514;-0.178;2022-11-04T00:01:09;26.75;;;11.90;;
48524;SDS011;34316;51.514;-0.178;2022-11-04T00:03:11;28.10;;;12.15;;
48524;SDS011;34316;51.514;-0.178;2022-11-04T00:05:12;24.92;;;11.55;;
48524;SDS011;34316;51.514;-0.178;2022-11-04T00:07:14;21.08;;;11.98;;
48524;SDS011;34316;51.514;-0.178;2022-11-04T00:09:34;28.73;;;12.25;;
48524;SDS011;34316;51.514;-0.178;2022-11-04T00:11:36;23.33;;;12.00;;
48524;SDS011;34316;51.514;-0.178;2022-11-04T00:13:56;21.13;;;10.88;;
48524;SDS011;34316;51.514;-0.178;2022-11-04T00:16:01;23.70;;;11.70;;
48524;SDS011;34316;51.514;-0.178;2022-11-04T00:18:21;23.23;;;12.10;;
48524;SDS011;34316;51.514;-0.178;2022-11-04T00:20:24;24.77;;;11.75;;
48524;SDS011;34316;51.514;-0.178;2022-11-04T00:22:46;23.90;;;12.38;;
48524;SDS011;34316;51.514;-0.178;2022-11-04T00:25:08;26.52;;;12.20;;
48524;SDS011;34316;51.514;-0.178;2022-11-04T00:27:28;24.10;;;11.40;;
48524;SDS011;34316;51.514;-0.178;2022-11-04T00:29:48;23.85;;;12.43;;
48524;SDS011;34316;51.514;-0.178;2022-11-04T00:31:50;26.08;;;11.80;;
48524;SDS011;34316;51.514;-0.178;2022-11-04T00:34:10;21.35;;;12.23;;
48524;SDS011;34316;51.514;-0.178;2022-11-04T00:36:12;23.20;;;11.10;;
48524;SDS011;34316;51.514;-0.178;2022-11-04T00:38:13;20.23;;;11.98;;
48524;SDS011;34316;51.514;-0.178;2022-11-04T00:40:15;21.90;;;11.52;;
48524;SDS011;34316;51.514;-0.178;2022-11-04T00:42:17;25.15;;;12.65;;
48524;SDS011;34316;51.514;-0.178;2022-11-04T00:44:19;23.77;;;12.30;;
48524;SDS011;34316;51.514;-0.178;2022-11-04T00:46:20;25.38;;;12.18;;
48524;SDS011;34316;51.514;-0.178;2022-11-04T00:48:22;25.10;;;11.93;;
48524;SDS011;34316;51.514;-0.178;2022-11-04T00:50:24;21.92;;;12.07;;
48524;SDS011;34316;51.514;-0.178;2022-11-04T00:52:25;23.75;;;12.63;;
48524;SDS011;34316;51.514;-0.178;2022-11-04T00:54:27;22.65;;;12.32;;
48524;SDS011;34316;51.514;-0.178;2022-11-04T00:56:28;18.20;;;11.27;;
48524;SDS011;34316;51.514;-0.178;2022-11-04T00:58:30;23.00;;;12.48;;
48524;SDS011;34316;51.514;-0.178;2022-11-04T01:00:32;23.10;;;12.88;;
48524;SDS011;34316;51.514;-0.178;2022-11-04T01:02:33;23.77;;;12.77;;
48524;SDS011;34316;51.514;-0.178;2022-11-04T01:04:35;20.83;;;11.77;;
48524;SDS011;34316;51.514;-0.178;2022-11-04T01:06:37;22.10;;;12.50;;
48524;SDS011;34316;51.514;-0.178;2022-11-04T01:08:39;20.10;;;12.43;;
48524;SDS011;34316;51.514;-0.178;2022-11-04T01:10:41;24.45;;;12.73;;
48524;SDS011;34316;51.514;-0.178;2022-11-04T01:12:46;19.65;;;12.90;;
48524;SDS011;34316;51.514;-0.178;2022-11-04T01:14:47;22.33;;;12.38;;
48524;SDS011;34316;51.514;-0.178;2022-11-04T01:16:49;26.45;;;12.25;;
48524;SDS011;34316;51.514;-0.178;2022-11-04T01:18:51;25.65;;;11.85;;
48524;SDS011;34316;51.514;-0.178;2022-11-04T01:20:53;21.63;;;10.80;;
48524;SDS011;34316;51.514;-0.178;2022-11-04T01:22:55;21.42;;;11.18;;
48524;SDS011;34316;51.514;-0.178;2022-11-04T01:24:56;26.13;;;12.52;;
48524;SDS011;34316;51.514;-0.178;2022-11-04T01:26:58;19.95;;;11.80;;
48524;SDS011;34316;51.514;-0.178;2022-11-04T01:29:00;22.67;;;11.80;;
48524;SDS011;34316;51.514;-0.178;2022-11-04T01:31:05;18.05;;;11.90;;
48524;SDS011;34316;51.514;-0.178;2022-11-04T01:33:12;21.50;;;11.77;;
48524;SDS011;34316;51.514;-0.178;2022-11-04T01:35:13;25.13;;;12.77;;
48524;SDS011;34316;51.514;-0.178;2022-11-04T01:37:15;19.98;;;12.18;;
48524;SDS011;34316;51.514;-0.178;2022-11-04T01:39:17;21.48;;;11.82;;
48524;SDS011;34316;51.514;-0.178;2022-11-04T01:41:20;21.60;;;11.60;;
48524;SDS011;34316;51.514;-0.178;2022-11-04T01:43:42;19.38;;;11.82;;
48524;SDS011;34316;51.514;-0.178;2022-11-04T01:45:45;30.33;;;12.57;;
48524;SDS011;34316;51.514;-0.178;2022-11-04T01:47:56;25.45;;;12.07;;
48524;SDS011;34316;51.514;-0.178;2022-11-04T01:50:20;25.85;;;12.77;;
48524;SDS011;34316;51.514;-0.178;2022-11-04T01:52:29;21.60;;;11.93;;
48524;SDS011;34316;51.514;-0.178;2022-11-04T01:54:34;23.05;;;12.35;;
48524;SDS011;34316;51.514;-0.178;2022-11-04T01:56:36;23.38;;;12.30;;
48524;SDS011;34316;51.514;-0.178;2022-11-04T01:58:40;18.20;;;12.00;;
48524;SDS011;34316;51.514;-0.178;2022-11-04T02:00:52;23.05;;;11.73;;
48524;SDS011;34316;51.514;-0.178;2022-11-04T02:05:20;20.75;;;11.95;;
48524;SDS011;34316;51.514;-0.178;2022-11-04T02:07:22;30.90;;;12.70;;
48524;SDS011;34316;51.514;-0.178;2022-11-04T02:09:25;20.65;;;11.95;;
48524;SDS011;34316;51.514;-0.178;2022-11-04T02:11:28;22.92;;;12.27;;
48524;SDS011;34316;51.514;-0.178;2022-11-04T02:13:48;20.77;;;12.15;;
48524;SDS011;34316;51.514;-0.178;2022-11-04T02:20:10;22.33;;;12.57;;
48524;SDS011;34316;51.514;-0.178;2022-11-04T02:34:17;25.27;;;13.23;;
48524;SDS011;34316;51.514;-0.178;2022-11-04T02:38:36;33.25;;;13.48;;
48524;SDS011;34316;51.514;-0.178;2022-11-04T02:43:27;24.80;;;13.35;;
48524;SDS011;34316;51.514;-0.178;2022-11-04T02:45:39;21.80;;;13.32;;
48524;SDS011;34316;51.514;-0.178;2022-11-04T02:47:48;24.50;;;12.85;;
48524;SDS011;34316;51.514;-0.178;2022-11-04T02:52:14;19.73;;;13.23;;
48524;SDS011;34316;51.514;-0.178;2022-11-04T02:54:26;20.80;;;13.10;;
48524;SDS011;34316;51.514;-0.178;2022-11-04T02:56:45;24.55;;;12.50;;
48524;SDS011;34316;51.514;-0.178;2022-11-04T02:58:57;23.85;;;12.73;;
48524;SDS011;34316;51.514;-0.178;2022-11-04T03:01:01;22.27;;;13.05;;
48524;SDS011;34316;51.514;-0.178;2022-11-04T03:03:06;23.27;;;13.57;;
48524;SDS011;34316;51.514;-0.178;2022-11-04T03:05:15;22.80;;;12.32;;
48524;SDS011;34316;51.514;-0.178;2022-11-04T03:07:21;19.80;;;12.40;;
48524;SDS011;34316;51.514;-0.178;2022-11-04T03:09:27;21.00;;;12.85;;
48524;SDS011;34316;51.514;-0.178;2022-11-04T03:11:29;25.15;;;13.00;;
48524;SDS011;34316;51.514;-0.178;2022-11-04T03:13:41;24.02;;;13.20;;
48524;SDS011;34316;51.514;-0.178;2022-11-04T03:16:05;23.73;;;12.65;;
48524;SDS011;34316;51.514;-0.178;2022-11-04T03:20:17;19.65;;;13.63;;
48524;SDS011;34316;51.514;-0.178;2022-11-04T03:22:21;20.55;;;12.60;;
48524;SDS011;34316;51.514;-0.178;2022-11-04T03:24:24;22.83;;;13.70;;
48524;SDS011;34316;51.514;-0.178;2022-11-04T03:26:27;24.80;;;13.38;;
48524;SDS011;34316;51.514;-0.178;2022-11-04T03:31:22;23.60;;;13.90;;
48524;SDS011;34316;51.514;-0.178;2022-11-04T03:33:28;19.92;;;13.38;;
48524;SDS011;34316;51.514;-0.178;2022-11-04T03:35:38;23.35;;;13.43;;
48524;SDS011;34316;51.514;-0.178;2022-11-04T03:37:40;21.10;;;12.82;;
48524;SDS011;34316;51.514;-0.178;2022-11-04T03:39:42;24.35;;;13.73;;
48524;SDS011;34316;51.514;-0.178;2022-11-04T03:41:57;24.10;;;13.45;;
48524;SDS011;34316;51.514;-0.178;2022-11-04T03:44:02;30.45;;;13.80;;
48524;SDS011;34316;51.514;-0.178;2022-11-04T03:46:04;23.52;;;12.77;;
48524;SDS011;34316;51.514;-0.178;2022-11-04T03:48:06;24.45;;;13.80;;
48524;SDS011;34316;51.514;-0.178;2022-11-04T03:52:21;21.57;;;12.67;;
48524;SDS011;34316;51.514;-0.178;2022-11-04T03:54:22;24.73;;;13.48;;
48524;SDS011;34316;51.514;-0.178;2022-11-04T04:01:09;22.52;;;13.25;;
48524;SDS011;34316;51.514;-0.178;2022-11-04T04:07:34;25.33;;;13.85;;
48524;SDS011;34316;51.514;-0.178;2022-11-04T04:10:13;19.15;;;12.95;;
48524;SDS011;34316;51.514;-0.178;2022-11-04T04:12:35;23.58;;;13.30;;
48524;SDS011;34316;51.514;-0.178;2022-11-04T04:14:40;24.55;;;13.32;;
48524;SDS011;34316;51.514;-0.178;2022-11-04T04:16:44;22.23;;;13.25;;
48524;SDS011;34316;51.514;-0.178;2022-11-04T04:18:49;26.35;;;14.20;;
48524;SDS011;34316;51.514;-0.178;2022-11-04T04:20:58;25.52;;;13.32;;
48524;SDS011;34316;51.514;-0.178;2022-11-04T04:23:07;22.50;;;12.93;;
48524;SDS011;34316;51.514;-0.178;2022-11-04T04:25:30;23.88;;;12.57;;
48524;SDS011;34316;51.514;-0.178;2022-11-04T04:27:51;23.63;;;13.85;;
48524;SDS011;34316;51.514;-0.178;2022-11-04T04:29:53;25.83;;;13.43;;
48524;SDS011;34316;51.514;-0.178;2022-11-04T04:31:55;23.13;;;12.95;;
48524;SDS011;34316;51.514;-0.178;2022-11-04T04:33:58;25.55;;;15.15;;
48524;SDS011;34316;51.514;-0.178;2022-11-04T04:36:00;33.78;;;13.55;;
48524;SDS011;34316;51.514;-0.178;2022-11-04T04:38:03;31.48;;;14.65;;
48524;SDS011;34316;51.514;-0.178;2022-11-04T04:40:25;29.30;;;13.90;;
48524;SDS011;34316;51.514;-0.178;2022-11-04T04:42:47;23.42;;;13.38;;
48524;SDS011;34316;51.514;-0.178;2022-11-04T04:47:15;27.08;;;14.10;;
48524;SDS011;34316;51.514;-0.178;2022-11-04T04:49:20;20.90;;;13.57;;
48524;SDS011;34316;51.514;-0.178;2022-11-04T04:51:22;18.90;;;13.27;;
48524;SDS011;34316;51.514;-0.178;2022-11-04T04:53:24;26.67;;;14.32;;
48524;SDS011;34316;51.514;-0.178;2022-11-04T04:55:25;20.83;;;12.95;;
48524;SDS011;34316;51.514;-0.178;2022-11-04T04:57:27;23.30;;;13.25;;
48524;SDS011;34316;51.514;-0.178;2022-11-04T04:59:28;32.33;;;18.55;;
48524;SDS011;34316;51.514;-0.178;2022-11-04T05:01:30;46.13;;;35.42;;
48524;SDS011;34316;51.514;-0.178;2022-11-04T05:03:32;55.92;;;40.60;;
48524;SDS011;34316;51.514;-0.178;2022-11-04T05:05:34;54.50;;;46.72;;
48524;SDS011;34316;51.514;-0.178;2022-11-04T05:07:35;57.13;;;46.25;;
48524;SDS011;34316;51.514;-0.178;2022-11-04T05:09:37;52.13;;;41.88;;
48524;SDS011;34316;51.514;-0.178;2022-11-04T05:11:39;56.63;;;41.63;;
48524;SDS011;34316;51.514;-0.178;2022-11-04T05:13:40;42.33;;;33.35;;
48524;SDS011;34316;51.514;-0.178;2022-11-04T05:15:42;46.85;;;33.08;;
48524;SDS011;34316;51.514;-0.178;2022-11-04T05:17:44;47.25;;;30.23;;
48524;SDS011;34316;51.514;-0.178;2022-11-04T05:19:45;40.90;;;29.23;;
48524;SDS011;34316;51.514;-0.178;2022-11-04T05:21:47;41.30;;;24.83;;
48524;SDS011;34316;51.514;-0.178;2022-11-04T05:23:48;35.28;;;24.70;;
48524;SDS011;34316;51.514;-0.178;2022-11-04T05:25:50;40.38;;;25.58;;
48524;SDS011;34316;51.514;-0.178;2022-11-04T05:27:52;40.08;;;25.40;;
48524;SDS011;34316;51.514;-0.178;2022-11-04T05:29:53;35.13;;;21.95;;
48524;SDS011;34316;51.514;-0.178;2022-11-04T05:31:55;34.15;;;20.45;;
48524;SDS011;34316;51.514;-0.178;2022-11-04T05:33:57;36.83;;;19.13;;
48524;SDS011;34316;51.514;-0.178;2022-11-04T05:38:08;34.05;;;20.67;;
48524;SDS011;34316;51.514;-0.178;2022-11-04T05:40:11;37.03;;;18.85;;
48524;SDS011;34316;51.514;-0.178;2022-11-04T05:42:12;31.45;;;16.58;;
48524;SDS011;34316;51.514;-0.178;2022-11-04T05:44:14;33.50;;;18.38;;
48524;SDS011;34316;51.514;-0.178;2022-11-04T05:46:16;27.52;;;18.08;;
48524;SDS011;34316;51.514;-0.178;2022-11-04T05:48:17;26.95;;;16.63;;
48524;SDS011;34316;51.514;-0.178;2022-11-04T05:50:19;27.70;;;17.17;;
48524;SDS011;34316;51.514;-0.178;2022-11-04T05:52:21;30.00;;;16.67;;
48524;SDS011;34316;51.514;-0.178;2022-11-04T05:54:22;30.48;;;17.35;;
48524;SDS011;34316;51.514;-0.178;2022-11-04T05:56:24;28.38;;;17.15;;
48524;SDS011;34316;51.514;-0.178;2022-11-04T05:58:26;30.73;;;17.77;;
48524;SDS011;34316;51.514;-0.178;2022-11-04T06:00:27;29.90;;;17.98;;
48524;SDS011;34316;51.514;-0.178;2022-11-04T06:02:29;28.45;;;17.60;;
48524;SDS011;34316;51.514;-0.178;2022-11-04T06:04:31;31.52;;;18.35;;
48524;SDS011;34316;51.514;-0.178;2022-11-04T06:06:34;31.45;;;17.70;;
48524;SDS011;34316;51.514;-0.178;2022-11-04T06:08:36;31.98;;;18.75;;
48524;SDS011;34316;51.514;-0.178;2022-11-04T06:10:45;31.80;;;18.65;;
48524;SDS011;34316;51.514;-0.178;2022-11-04T06:12:46;26.95;;;17.45;;
48524;SDS011;34316;51.514;-0.178;2022-11-04T06:14:48;25.67;;;17.13;;
48524;SDS011;34316;51.514;-0.178;2022-11-04T06:16:49;28.70;;;18.20;;
48524;SDS011;34316;51.514;-0.178;2022-11-04T06:18:51;28.60;;;17.58;;
48524;SDS011;34316;51.514;-0.178;2022-11-04T06:21:06;34.67;;;17.48;;
48524;SDS011;34316;51.514;-0.178;2022-11-04T06:23:09;31.60;;;19.42;;
48524;SDS011;34316;51.514;-0.178;2022-11-04T06:25:14;36.40;;;18.15;;
48524;SDS011;34316;51.514;-0.178;2022-11-04T06:27:15;29.10;;;18.38;;
48524;SDS011;34316;51.514;-0.178;2022-11-04T06:29:17;31.25;;;17.90;;
48524;SDS011;34316;51.514;-0.178;2022-11-04T06:31:19;31.05;;;19.17;;
48524;SDS011;34316;51.514;-0.178;2022-11-04T06:33:21;28.08;;;19.52;;
48524;SDS011;34316;51.514;-0.178;2022-11-04T06:35:22;31.38;;;19.10;;
48524;SDS011;34316;51.514;-0.178;2022-11-04T06:37:24;32.53;;;19.60;;
48524;SDS011;34316;51.514;-0.178;2022-11-04T06:39:26;31.30;;;19.63;;
48524;SDS011;34316;51.514;-0.178;2022-11-04T06:41:27;32.85;;;18.30;;
48524;SDS011;34316;51.514;-0.178;2022-11-04T06:43:29;34.58;;;20.60;;
48524;SDS011;34316;51.514;-0.178;2022-11-04T06:45:30;36.35;;;19.92;;
48524;SDS011;34316;51.514;-0.178;2022-11-04T06:47:32;34.45;;;19.63;;
48524;SDS011;34316;51.514;-0.178;2022-11-04T06:49:34;34.75;;;22.25;;
48524;SDS011;34316;51.514;-0.178;2022-11-04T06:51:35;32.10;;;20.83;;
48524;SDS011;34316;51.514;-0.178;2022-11-04T06:53:37;35.95;;;21.50;;
48524;SDS011;34316;51.514;-0.178;2022-11-04T06:55:39;32.33;;;21.08;;
48524;SDS011;34316;51.514;-0.178;2022-11-04T06:57:40;39.78;;;21.23;;
48524;SDS011;34316;51.514;-0.178;2022-11-04T06:59:42;38.22;;;21.60;;
48524;SDS011;34316;51.514;-0.178;2022-11-04T07:01:44;37.63;;;22.15;;
48524;SDS011;34316;51.514;-0.178;2022-11-04T07:03:50;35.00;;;20.67;;
48524;SDS011;34316;51.514;-0.178;2022-11-04T07:05:55;31.88;;;19.63;;
48524;SDS011;34316;51.514;-0.178;2022-11-04T07:07:56;35.67;;;21.67;;
48524;SDS011;34316;51.514;-0.178;2022-11-04T07:09:58;33.65;;;21.40;;
48524;SDS011;34316;51.514;-0.178;2022-11-04T07:11:59;31.90;;;21.48;;
48524;SDS011;34316;51.514;-0.178;2022-11-04T07:14:01;32.20;;;20.65;;
48524;SDS011;34316;51.514;-0.178;2022-11-04T07:16:04;34.58;;;20.80;;
48524;SDS011;34316;51.514;-0.178;2022-11-04T07:18:06;35.25;;;20.77;;
48524;SDS011;34316;51.514;-0.178;2022-11-04T07:20:08;30.50;;;19.58;;
48524;SDS011;34316;51.514;-0.178;2022-11-04T07:22:13;53.25;;;28.52;;
48524;SDS011;34316;51.514;-0.178;2022-11-04T07:24:15;34.95;;;21.83;;
48524;SDS011;34316;51.514;-0.178;2022-11-04T07:26:16;38.05;;;22.52;;
48524;SDS011;34316;51.514;-0.178;2022-11-04T07:28:18;34.95;;;20.58;;
48524;SDS011;34316;51.514;-0.178;2022-11-04T07:30:20;37.58;;;22.30;;
48524;SDS011;34316;51.514;-0.178;2022-11-04T07:32:22;44.83;;;21.75;;
48524;SDS011;34316;51.514;-0.178;2022-11-04T07:34:23;40.45;;;22.80;;
48524;SDS011;34316;51.514;-0.178;2022-11-04T07:36:25;34.28;;;20.77;;
48524;SDS011;34316;51.514;-0.178;2022-11-04T07:38:26;36.25;;;21.05;;
48524;SDS011;34316;51.514;-0.178;2022-11-04T07:40:28;31.42;;;20.05;;
48524;SDS011;34316;51.514;-0.178;2022-11-04T07:42:31;40.17;;;21.33;;
48524;SDS011;34316;51.514;-0.178;2022-11-04T07:44:32;32.10;;;20.83;;
48524;SDS011;34316;51.514;-0.178;2022-11-04T07:46:34;30.67;;;20.50;;
48524;SDS011;34316;51.514;-0.178;2022-11-04T07:48:36;33.22;;;21.30;;
48524;SDS011;34316;51.514;-0.178;2022-11-04T07:50:38;34.97;;;21.70;;
48524;SDS011;34316;51.514;-0.178;2022-11-04T07:52:40;35.27;;;22.23;;
48524;SDS011;34316;51.514;-0.178;2022-11-04T07:54:42;43.13;;;22.63;;
48524;SDS011;34316;51.514;-0.178;2022-11-04T07:56:44;38.10;;;21.63;;
48524;SDS011;34316;51.514;-0.178;2022-11-04T07:58:45;37.78;;;20.95;;
48524;SDS011;34316;51.514;-0.178;2022-11-04T08:00:47;42.55;;;22.80;;
48524;SDS011;34316;51.514;-0.178;2022-11-04T08:02:49;35.30;;;21.60;;
48524;SDS011;34316;51.514;-0.178;2022-11-04T08:04:51;34.60;;;22.75;;
48524;SDS011;34316;51.514;-0.178;2022-11-04T08:06:53;36.03;;;23.35;;
48524;SDS011;34316;51.514;-0.178;2022-11-04T08:08:54;41.95;;;25.38;;
48524;SDS011;34316;51.514;-0.178;2022-11-04T08:10:59;43.33;;;23.85;;
48524;SDS011;34316;51.514;-0.178;2022-11-04T08:13:03;37.22;;;23.30;;
48524;SDS011;34316;51.514;-0.178;2022-11-04T08:15:05;31.30;;;22.17;;
48524;SDS011;34316;51.514;-0.178;2022-11-04T08:17:07;32.50;;;22.02;;
48524;SDS011;34316;51.514;-0.178;2022-11-04T08:19:08;39.47;;;23.65;;
48524;SDS011;34316;51.514;-0.178;2022-11-04T08:21:10;38.58;;;23.48;;
48524;SDS011;34316;51.514;-0.178;2022-11-04T08:23:13;35.05;;;22.65;;
48524;SDS011;34316;51.514;-0.178;2022-11-04T08:25:14;33.10;;;22.50;;
48524;SDS011;34316;51.514;-0.178;2022-11-04T08:27:17;36.72;;;23.15;;
48524;SDS011;34316;51.514;-0.178;2022-11-04T08:29:18;38.22;;;23.15;;
48524;SDS011;34316;51.514;-0.178;2022-11-04T08:31:24;35.17;;;22.70;;
48524;SDS011;34316;51.514;-0.178;2022-11-04T08:33:28;38.78;;;24.20;;
48524;SDS011;34316;51.514;-0.178;2022-11-04T08:37:41;36.67;;;24.10;;
48524;SDS011;34316;51.514;-0.178;2022-11-04T08:39:42;39.33;;;25.90;;
48524;SDS011;34316;51.514;-0.178;2022-11-04T08:41:44;36.50;;;24.42;;
48524;SDS011;34316;51.514;-0.178;2022-11-04T08:43:46;36.95;;;22.45;;
48524;SDS011;34316;51.514;-0.178;2022-11-04T08:45:48;38.00;;;22.48;;
48524;SDS011;34316;51.514;-0.178;2022-11-04T08:47:50;35.85;;;22.25;;
48524;SDS011;34316;51.514;-0.178;2022-11-04T08:49:51;37.42;;;22.55;;
48524;SDS011;34316;51.514;-0.178;2022-11-04T08:51:53;35.95;;;22.88;;
48524;SDS011;34316;51.514;-0.178;2022-11-04T08:54:00;35.40;;;21.52;;
48524;SDS011;34316;51.514;-0.178;2022-11-04T08:56:22;38.00;;;22.83;;
48524;SDS011;34316;51.514;-0.178;2022-11-04T08:58:25;33.00;;;21.52;;
48524;SDS011;34316;51.514;-0.178;2022-11-04T09:00:26;37.60;;;21.70;;
48524;SDS011;34316;51.514;-0.178;2022-11-04T09:02:33;33.83;;;20.98;;
48524;SDS011;34316;51.514;-0.178;2022-11-04T09:04:34;36.33;;;22.50;;
48524;SDS011;34316;51.514;-0.178;2022-11-04T09:06:37;35.95;;;21.67;;
48524;SDS011;34316;51.514;-0.178;2022-11-04T09:08:41;31.35;;;21.00;;
48524;SDS011;34316;51.514;-0.178;2022-11-04T09:10:44;39.25;;;22.23;;
48524;SDS011;34316;51.514;-0.178;2022-11-04T09:12:47;36.78;;;22.40;;
48524;SDS011;34316;51.514;-0.178;2022-11-04T09:14:48;30.95;;;20.33;;
48524;SDS011;34316;51.514;-0.178;2022-11-04T09:16:50;31.38;;;20.17;;
48524;SDS011;34316;51.514;-0.178;2022-11-04T09:18:52;35.25;;;21.98;;
48524;SDS011;34316;51.514;-0.178;2022-11-04T09:20:53;33.10;;;20.33;;
48524;SDS011;34316;51.514;-0.178;2022-11-04T09:22:55;32.83;;;20.95;;
48524;SDS011;34316;51.514;-0.178;2022-11-04T09:24:57;38.05;;;20.35;;
48524;SDS011;34316;51.514;-0.178;2022-11-04T09:26:59;33.65;;;21.15;;
48524;SDS011;34316;51.514;-0.178;2022-11-04T09:29:01;35.10;;;21.75;;
48524;SDS011;34316;51.514;-0.178;2022-11-04T09:31:03;36.47;;;22.58;;
48524;SDS011;34316;51.514;-0.178;2022-11-04T09:35:08;37.05;;;20.00;;
48524;SDS011;34316;51.514;-0.178;2022-11-04T09:37:10;30.75;;;19.48;;
48524;SDS011;34316;51.514;-0.178;2022-11-04T09:39:11;33.00;;;18.40;;
48524;SDS011;34316;51.514;-0.178;2022-11-04T09:45:50;31.38;;;19.23;;
48524;SDS011;34316;51.514;-0.178;2022-11-04T09:47:54;29.25;;;18.73;;
48524;SDS011;34316;51.514;-0.178;2022-11-04T09:49:59;32.47;;;19.63;;
48524;SDS011;34316;51.514;-0.178;2022-11-04T09:52:02;32.40;;;19.80;;
48524;SDS011;34316;51.514;-0.178;2022-11-04T09:56:31;31.23;;;19.10;;
48524;SDS011;34316;51.514;-0.178;2022-11-04T09:58:42;30.35;;;18.38;;
48524;SDS011;34316;51.514;-0.178;2022-11-04T10:00:46;33.90;;;20.02;;
48524;SDS011;34316;51.514;-0.178;2022-11-04T10:03:11;32.30;;;19.02;;
48524;SDS011;34316;51.514;-0.178;2022-11-04T10:07:44;39.78;;;19.55;;
48524;SDS011;34316;51.514;-0.178;2022-11-04T10:16:58;34.83;;;19.92;;
48524;SDS011;34316;51.514;-0.178;2022-11-04T10:27:02;32.90;;;18.85;;
48524;SDS011;34316;51.514;-0.178;2022-11-04T10:29:07;29.58;;;18.38;;
48524;SDS011;34316;51.514;-0.178;2022-11-04T10:31:14;36.05;;;19.38;;
48524;SDS011;34316;51.514;-0.178;2022-11-04T10:36:01;32.30;;;19.65;;
48524;SDS011;34316;51.514;-0.178;2022-11-04T10:40:31;32.50;;;19.10;;
48524;SDS011;34316;51.514;-0.178;2022-11-04T10:42:37;31.10;;;19.05;;
48524;SDS011;34316;51.514;-0.178;2022-11-04T10:44:38;32.83;;;18.73;;
48524;SDS011;34316;51.514;-0.178;2022-11-04T10:51:38;28.45;;;17.50;;
48524;SDS011;34316;51.514;-0.178;2022-11-04T10:53:39;30.52;;;18.48;;
48524;SDS011;34316;51.514;-0.178;2022-11-04T10:55:44;31.15;;;16.77;;
48524;SDS011;34316;51.514;-0.178;2022-11-04T10:57:52;33.25;;;17.08;;
48524;SDS011;34316;51.514;-0.178;2022-11-04T10:59:57;30.52;;;17.25;;
48524;SDS011;34316;51.514;-0.178;2022-11-04T11:02:01;41.03;;;21.38;;
48524;SDS011;34316;51.514;-0.178;2022-11-04T11:04:05;27.60;;;16.58;;
48524;SDS011;34316;51.514;-0.178;2022-11-04T11:06:21;25.20;;;15.88;;
48524;SDS011;34316;51.514;-0.178;2022-11-04T11:08:29;126.38;;;76.72;;
48524;SDS011;34316;51.514;-0.178;2022-11-04T11:10:33;25.75;;;15.45;;
48524;SDS011;34316;51.514;-0.178;2022-11-04T11:12:35;34.60;;;14.45;;
48524;SDS011;34316;51.514;-0.178;2022-11-04T11:14:52;24.02;;;14.13;;
48524;SDS011;34316;51.514;-0.178;2022-11-04T11:16:57;24.85;;;14.15;;
48524;SDS011;34316;51.514;-0.178;2022-11-04T11:19:19;35.20;;;15.25;;
48524;SDS011;34316;51.514;-0.178;2022-11-04T11:21:22;22.90;;;13.32;;
48524;SDS011;34316;51.514;-0.178;2022-11-04T11:23:38;23.20;;;12.95;;
48524;SDS011;34316;51.514;-0.178;2022-11-04T11:25:42;23.95;;;14.07;;
48524;SDS011;34316;51.514;-0.178;2022-11-04T11:27:52;24.20;;;13.13;;
48524;SDS011;34316;51.514;-0.178;2022-11-04T11:29:55;25.02;;;14.00;;
48524;SDS011;34316;51.514;-0.178;2022-11-04T11:31:57;32.00;;;14.25;;
48524;SDS011;34316;51.514;-0.178;2022-11-04T11:34:04;27.88;;;14.32;;
48524;SDS011;34316;51.514;-0.178;2022-11-04T11:38:25;24.80;;;14.45;;
48524;SDS011;34316;51.514;-0.178;2022-11-04T11:40:29;20.85;;;12.77;;
48524;SDS011;34316;51.514;-0.178;2022-11-04T11:42:32;27.27;;;14.48;;
48524;SDS011;34316;51.514;-0.178;2022-11-04T11:46:49;23.15;;;14.20;;
48524;SDS011;34316;51.514;-0.178;2022-11-04T11:48:55;25.98;;;13.60;;
48524;SDS011;34316;51.514;-0.178;2022-11-04T11:51:01;23.88;;;14.18;;
48524;SDS011;34316;51.514;-0.178;2022-11-04T11:53:13;32.45;;;14.43;;
48524;SDS011;34316;51.514;-0.178;2022-11-04T11:55:33;25.08;;;14.75;;
48524;SDS011;34316;51.514;-0.178;2022-11-04T12:00:29;26.27;;;13.27;;
48524;SDS011;34316;51.514;-0.178;2022-11-04T12:04:56;27.02;;;12.77;;
48524;SDS011;34316;51.514;-0.178;2022-11-04T12:19:30;22.58;;;12.20;;
48524;SDS011;34316;51.514;-0.178;2022-11-04T12:22:00;19.83;;;12.70;;
48524;SDS011;34316;51.514;-0.178;2022-11-04T12:24:12;21.50;;;12.10;;
48524;SDS011;34316;51.514;-0.178;2022-11-04T12:31:22;20.50;;;11.32;;
48524;SDS011;34316;51.514;-0.178;2022-11-04T12:35:55;25.10;;;12.15;;
48524;SDS011;34316;51.514;-0.178;2022-11-04T12:40:30;23.45;;;11.55;;
48524;SDS011;34316;51.514;-0.178;2022-11-04T12:43:23;20.48;;;11.40;;
48524;SDS011;34316;51.514;-0.178;2022-11-04T12:45:42;20.73;;;12.30;;
48524;SDS011;34316;51.514;-0.178;2022-11-04T12:47:39;22.37;;;13.63;;
48524;SDS011;34316;51.514;-0.178;2022-11-04T12:57:41;17.70;;;9.77;;
48524;SDS011;34316;51.514;-0.178;2022-11-04T13:06:19;25.77;;;13.20;;
48524;SDS011;34316;51.514;-0.178;2022-11-04T13:08:39;19.50;;;10.82;;
48524;SDS011;34316;51.514;-0.178;2022-11-04T13:12:49;23.17;;;10.57;;
48524;SDS011;34316;51.514;-0.178;2022-11-04T13:14:58;20.60;;;11.30;;
48524;SDS011;34316;51.514;-0.178;2022-11-04T13:17:05;19.88;;;12.15;;
48524;SDS011;34316;51.514;-0.178;2022-11-04T13:19:27;24.17;;;11.63;;
48524;SDS011;34316;51.514;-0.178;2022-11-04T13:21:33;25.83;;;12.07;;
48524;SDS011;34316;51.514;-0.178;2022-11-04T13:23:38;28.70;;;12.80;;
48524;SDS011;34316;51.514;-0.178;2022-11-04T13:25:43;21.10;;;12.32;;
48524;SDS011;34316;51.514;-0.178;2022-11-04T13:27:46;24.13;;;12.23;;
48524;SDS011;34316;51.514;-0.178;2022-11-04T13:29:48;27.77;;;11.68;;
48524;SDS011;34316;51.514;-0.178;2022-11-04T13:34:15;20.55;;;12.23;;
48524;SDS011;34316;51.514;-0.178;2022-11-04T13:38:49;31.63;;;15.82;;
48524;SDS011;34316;51.514;-0.178;2022-11-04T13:40:57;27.75;;;13.52;;
48524;SDS011;34316;51.514;-0.178;2022-11-04T13:43:24;40.47;;;21.55;;
48524;SDS011;34316;51.514;-0.178;2022-11-04T13:45:44;30.15;;;13.38;;
48524;SDS011;34316;51.514;-0.178;2022-11-04T13:47:52;28.35;;;14.15;;
48524;SDS011;34316;51.514;-0.178;2022-11-04T13:49:55;22.70;;;11.50;;
48524;SDS011;34316;51.514;-0.178;2022-11-04T13:52:04;20.42;;;12.38;;
48524;SDS011;34316;51.514;-0.178;2022-11-04T13:54:21;23.25;;;12.13;;
48524;SDS011;34316;51.514;-0.178;2022-11-04T13:56:35;25.30;;;13.02;;
48524;SDS011;34316;51.514;-0.178;2022-11-04T13:58:38;23.65;;;12.43;;
48524;SDS011;34316;51.514;-0.178;2022-11-04T14:03:38;25.48;;;11.80;;
48524;SDS011;34316;51.514;-0.178;2022-11-04T14:06:01;23.25;;;12.27;;
48524;SDS011;34316;51.514;-0.178;2022-11-04T14:08:10;25.38;;;12.77;;
48524;SDS011;34316;51.514;-0.178;2022-11-04T14:12:43;31.35;;;12.85;;
48524;SDS011;34316;51.514;-0.178;2022-11-04T14:14:46;31.65;;;12.65;;
48524;SDS011;34316;51.514;-0.178;2022-11-04T14:16:49;29.10;;;12.15;;
48524;SDS011;34316;51.514;-0.178;2022-11-04T14:18:52;32.75;;;12.57;;
48524;SDS011;34316;51.514;-0.178;2022-11-04T14:21:07;23.70;;;12.45;;
48524;SDS011;34316;51.514;-0.178;2022-11-04T14:23:21;25.95;;;12.40;;
48524;SDS011;34316;51.514;-0.178;2022-11-04T14:27:30;22.27;;;12.00;;
48524;SDS011;34316;51.514;-0.178;2022-11-04T14:29:36;24.95;;;13.27;;